Time;durP1;ratioP1;P1;durP2;ratioP2;P2;SDS_P1;SDS_P2;PMS_P1;PMS_P2;Temp;Humidity;BMP_temperature;BMP_pressure;BME280_temperature;BME280_humidity;BME280_pressure;Samples;Min_cycle;Max_cycle;Signal;HPM_P1;HPM_P2
2022/06/03 00:02:09;;;;;;;4.38;2.70;;;12.90;99.90;;;;;;5073401;28;20071;-74
2022/06/03 00:04:53;;;;;;;3.03;2.58;;;12.90;99.90;;;;;;5071955;28;20045;-76
2022/06/03 00:08:01;;;;;;;5.57;3.17;;;12.80;99.90;;;;;;5073092;28;20147;-72
2022/06/03 00:10:27;;;;;;;3.22;2.92;;;12.80;99.90;;;;;;5073092;28;20049;-72
2022/06/03 00:13:08;;;;;;;3.42;2.92;;;12.70;99.90;;;;;;5073065;28;20045;-72
2022/06/03 00:15:36;;;;;;;4.80;2.75;;;12.60;99.90;;;;;;5072447;28;20535;-72
2022/06/03 00:18:18;;;;;;;4.53;2.90;;;12.70;99.90;;;;;;5075054;28;20064;-72
2022/06/03 00:21:02;;;;;;;6.72;4.40;;;12.60;99.90;;;;;;5073492;28;20181;-70
2022/06/03 00:23:51;;;;;;;5.13;3.58;;;12.60;99.90;;;;;;5073484;28;20040;-70
2022/06/03 00:26:17;;;;;;;3.88;2.92;;;12.50;99.90;;;;;;5067709;28;20463;-70
2022/06/03 00:29:03;;;;;;;3.72;3.13;;;12.50;99.90;;;;;;5072197;28;20040;-71
2022/06/03 00:31:53;;;;;;;5.30;3.15;;;12.40;99.90;;;;;;5072728;28;20044;-70
2022/06/03 00:34:32;;;;;;;4.78;2.63;;;12.50;99.90;;;;;;5072829;28;20127;-71
2022/06/03 00:37:27;;;;;;;4.30;3.38;;;12.30;99.90;;;;;;5073314;28;20135;-71
2022/06/03 00:40:09;;;;;;;6.78;3.50;;;12.20;99.90;;;;;;5072927;28;20052;-69
2022/06/03 00:42:53;;;;;;;4.93;3.33;;;12.20;99.90;;;;;;5073190;28;20050;-69
2022/06/03 00:45:43;;;;;;;3.97;3.58;;;12.30;99.90;;;;;;5072946;28;20401;-69
2022/06/03 00:48:31;;;;;;;5.03;3.50;;;12.40;99.90;;;;;;5073432;28;20406;-70
2022/06/03 00:51:09;;;;;;;5.38;3.85;;;12.30;99.90;;;;;;5073000;28;20044;-70
2022/06/03 00:54:22;;;;;;;4.28;3.67;;;12.10;99.90;;;;;;5071501;28;20045;-70
2022/06/03 00:57:11;;;;;;;4.30;3.47;;;12.10;99.90;;;;;;5019513;28;20057;-71
2022/06/03 00:59:54;;;;;;;4.93;4.15;;;12.10;99.90;;;;;;5071635;28;20145;-72
2022/06/03 01:02:19;;;;;;;5.32;4.15;;;12.20;99.90;;;;;;5072198;28;20049;-70
2022/06/03 01:05:12;;;;;;;4.50;3.65;;;12.10;99.90;;;;;;5072664;28;20059;-71
2022/06/03 01:08:21;;;;;;;6.68;4.00;;;12.00;99.90;;;;;;5072984;28;20044;-70
2022/06/03 01:11:01;;;;;;;5.22;4.15;;;12.00;99.90;;;;;;5073065;28;20048;-70
2022/06/03 01:13:45;;;;;;;6.32;3.50;;;12.00;99.90;;;;;;5072744;28;20049;-70
2022/06/03 01:16:45;;;;;;;5.03;3.90;;;11.90;99.90;;;;;;5072762;28;20052;-75
2022/06/03 01:19:31;;;;;;;9.05;5.15;;;11.90;99.90;;;;;;5071289;28;20105;-74
2022/06/03 01:22:28;;;;;;;5.00;4.25;;;11.80;99.90;;;;;;5072285;28;20052;-74
2022/06/03 01:25:16;;;;;;;4.22;3.83;;;11.90;99.90;;;;;;5072782;28;20047;-74
2022/06/03 01:28:24;;;;;;;6.15;3.80;;;11.90;99.90;;;;;;5072743;28;20040;-74
2022/06/03 01:31:02;;;;;;;4.25;3.38;;;11.90;99.90;;;;;;5073164;28;20106;-74
2022/06/03 01:33:36;;;;;;;5.68;4.35;;;12.00;99.90;;;;;;5072314;28;20511;-74
2022/06/03 01:36:33;;;;;;;4.20;3.80;;;11.90;99.90;;;;;;5072780;28;20056;-74
2022/06/03 01:39:23;;;;;;;5.28;3.83;;;11.90;99.90;;;;;;5073222;28;20067;-74
2022/06/03 01:42:32;;;;;;;4.95;3.63;;;12.00;99.90;;;;;;5072727;28;20063;-74
2022/06/03 01:45:19;;;;;;;5.03;3.25;;;11.90;99.90;;;;;;5072449;28;20159;-74
2022/06/03 01:48:23;;;;;;;4.30;3.90;;;11.90;99.90;;;;;;5072436;28;20128;-73
2022/06/03 01:51:01;;;;;;;6.43;3.85;;;11.90;99.90;;;;;;5051153;28;20106;-75
2022/06/03 01:54:11;;;;;;;4.90;4.13;;;11.90;99.90;;;;;;5076024;28;20052;-74
2022/06/03 01:57:10;;;;;;;4.07;3.53;;;11.90;99.90;;;;;;5039271;28;20061;-74
2022/06/03 01:59:48;;;;;;;5.18;3.75;;;11.80;99.90;;;;;;5076247;28;20064;-74
2022/06/03 02:02:51;;;;;;;6.47;4.18;;;11.70;99.90;;;;;;5074890;28;20048;-74
2022/06/03 02:05:40;;;;;;;9.05;7.35;;;11.60;99.90;;;;;;5074744;28;20055;-72
2022/06/03 02:08:09;;;;;;;6.47;4.70;;;11.50;99.90;;;;;;5076190;28;20044;-73
2022/06/03 02:10:53;;;;;;;4.65;3.72;;;11.40;99.90;;;;;;5075304;28;20051;-73
2022/06/03 02:13:28;;;;;;;8.27;5.50;;;11.30;99.90;;;;;;5075452;28;20044;-73
2022/06/03 02:16:09;;;;;;;8.57;4.78;;;11.10;99.90;;;;;;5076151;28;20048;-72
2022/06/03 02:19:19;;;;;;;6.07;4.68;;;10.90;99.90;;;;;;5075059;28;20067;-72
2022/06/03 02:21:48;;;;;;;6.28;4.55;;;10.90;99.90;;;;;;5075518;28;20063;-72
2022/06/03 02:24:32;;;;;;;7.32;5.72;;;10.70;99.90;;;;;;5075697;28;20040;-72
2022/06/03 02:27:22;;;;;;;8.75;5.50;;;10.70;99.90;;;;;;5075649;28;20102;-72
2022/06/03 02:30:26;;;;;;;6.25;5.05;;;10.50;99.90;;;;;;5075443;28;20048;-73
2022/06/03 02:33:07;;;;;;;7.78;5.22;;;10.50;99.90;;;;;;5074895;28;20058;-72
2022/06/03 02:36:02;;;;;;;7.10;5.53;;;10.30;99.90;;;;;;5074971;28;20188;-73
2022/06/03 02:38:58;;;;;;;6.53;4.88;;;10.30;99.90;;;;;;5074803;28;20044;-73
2022/06/03 02:41:23;;;;;;;7.15;5.20;;;10.20;99.90;;;;;;5074037;28;20460;-73
2022/06/03 02:44:26;;;;;;;6.63;5.20;;;10.10;99.90;;;;;;5074605;28;20085;-73
2022/06/03 02:46:59;;;;;;;4.63;4.10;;;10.10;99.90;;;;;;5074634;28;20197;-72
2022/06/03 02:49:44;;;;;;;10.18;5.05;;;10.10;99.90;;;;;;5075066;28;20052;-72
2022/06/03 02:52:29;;;;;;;5.70;4.53;;;10.10;99.90;;;;;;5074967;28;20048;-72
2022/06/03 02:55:07;;;;;;;8.35;4.38;;;10.00;99.90;;;;;;5075143;28;20139;-72
2022/06/03 02:58:17;;;;;;;7.22;4.82;;;9.90;99.90;;;;;;5073507;28;20063;-72
2022/06/03 03:00:57;;;;;;;6.00;5.10;;;9.90;99.90;;;;;;5031838;28;20084;-73
2022/06/03 03:03:44;;;;;;;5.90;4.22;;;10.00;99.90;;;;;;5016256;28;20562;-72
2022/06/03 03:06:41;;;;;;;7.10;4.60;;;10.00;99.90;;;;;;5062219;28;20060;-72
2022/06/03 03:09:31;;;;;;;7.07;4.45;;;9.90;99.90;;;;;;5074344;28;20094;-75
2022/06/03 03:12:14;;;;;;;52.00;31.77;;;9.80;99.90;;;;;;5073907;28;20041;-75
2022/06/03 03:15:07;;;;;;;7.95;5.63;;;9.80;99.90;;;;;;5074657;28;20059;-74
2022/06/03 03:17:54;;;;;;;9.95;5.93;;;9.80;99.90;;;;;;5072818;28;20055;-74
2022/06/03 03:20:25;;;;;;;8.02;5.88;;;9.80;99.90;;;;;;5073193;28;20056;-74
2022/06/03 03:23:19;;;;;;;7.68;6.15;;;9.70;99.90;;;;;;5074433;28;20057;-74
2022/06/03 03:26:04;;;;;;;6.93;5.25;;;9.70;99.90;;;;;;5074315;28;20459;-74
2022/06/03 03:28:38;;;;;;;7.28;5.18;;;9.60;99.90;;;;;;5073800;28;20127;-74
2022/06/03 03:31:22;;;;;;;10.07;5.57;;;9.60;99.90;;;;;;5072832;28;20056;-74
2022/06/03 03:34:20;;;;;;;8.98;6.13;;;9.70;99.90;;;;;;5074400;28;20536;-74
2022/06/03 03:36:58;;;;;;;8.15;5.30;;;9.70;99.90;;;;;;5073016;28;20090;-73
2022/06/03 03:39:46;;;;;;;10.05;5.97;;;9.70;99.90;;;;;;5073639;28;20091;-74
2022/06/03 03:42:30;;;;;;;9.55;5.22;;;9.70;99.90;;;;;;5073623;28;20090;-74
2022/06/03 03:45:08;;;;;;;7.97;4.78;;;9.70;99.90;;;;;;5073224;28;20036;-74
2022/06/03 03:48:22;;;;;;;6.82;4.70;;;9.70;99.90;;;;;;5073757;28;20052;-73
2022/06/03 03:51:06;;;;;;;10.60;6.20;;;9.70;99.90;;;;;;5050245;28;20514;-74
2022/06/03 03:53:50;;;;;;;;;;;9.80;99.90;;;;;;5073790;28;20094;-74
2022/06/03 03:56:34;;;;;;;;;;;9.80;99.90;;;;;;5073631;28;19927;-74
2022/06/03 03:59:37;;;;;;;8.23;5.68;;;9.80;99.90;;;;;;5073768;28;19920;-74
2022/06/03 04:02:21;;;;;;;66.20;37.10;;;9.90;99.90;;;;;;5073330;28;20045;-74
2022/06/03 04:05:20;;;;;;;15.27;9.10;;;9.90;99.90;;;;;;5073125;28;20212;-71
2022/06/03 04:07:57;;;;;;;10.93;5.93;;;10.00;99.90;;;;;;5073042;28;20045;-73
2022/06/03 04:11:00;;;;;;;8.20;5.45;;;10.10;99.90;;;;;;5073032;28;20048;-72
2022/06/03 04:13:50;;;;;;;8.63;5.25;;;10.20;99.90;;;;;;5072541;28;20048;-72
2022/06/03 04:16:36;;;;;;;7.35;5.20;;;10.30;99.90;;;;;;5072940;28;20079;-70
2022/06/03 04:19:18;;;;;;;10.07;6.82;;;10.30;99.90;;;;;;5072738;28;20096;-70
2022/06/03 04:22:12;;;;;;;9.82;5.78;;;10.30;99.90;;;;;;5072972;28;20072;-70
2022/06/03 04:24:44;;;;;;;9.80;5.65;;;10.40;99.90;;;;;;5072981;28;20127;-71
2022/06/03 04:27:31;;;;;;;9.88;7.60;;;10.40;99.90;;;;;;5071593;28;20052;-70
2022/06/03 04:30:14;;;;;;;8.93;6.15;;;10.40;99.90;;;;;;5071799;28;20040;-71
2022/06/03 04:32:49;;;;;;;8.65;6.60;;;10.50;99.90;;;;;;5073001;28;20052;-71
2022/06/03 04:35:37;;;;;;;6.60;5.57;;;10.50;99.90;;;;;;5073042;28;20049;-70
2022/06/03 04:38:27;;;;;;;9.23;6.60;;;10.50;99.90;;;;;;5072023;28;20040;-71
2022/06/03 04:41:13;;;;;;;15.68;6.97;;;10.60;99.90;;;;;;5073102;28;20044;-71
2022/06/03 04:44:01;;;;;;;12.63;6.88;;;10.60;99.90;;;;;;5072452;28;20055;-70
2022/06/03 04:46:53;;;;;;;7.03;5.07;;;10.60;99.90;;;;;;5072570;28;20040;-70
2022/06/03 04:49:56;;;;;;;17.88;6.32;;;10.70;99.90;;;;;;5071792;28;20048;-71
2022/06/03 04:52:45;;;;;;;8.63;6.40;;;10.70;99.90;;;;;;5073200;28;20040;-70
2022/06/03 04:55:32;;;;;;;12.65;8.88;;;10.80;99.90;;;;;;5073343;28;20080;-71
2022/06/03 04:58:32;;;;;;;11.80;6.60;;;10.80;99.90;;;;;;5072568;28;20060;-70
2022/06/03 05:01:01;;;;;;;8.82;6.35;;;10.90;99.90;;;;;;5073207;28;20063;-71
2022/06/03 05:04:25;;;;;;;9.30;6.65;;;10.90;99.90;;;;;;5073020;28;20048;-70
2022/06/03 05:07:09;;;;;;;12.77;6.50;;;11.00;99.90;;;;;;5010834;28;20053;-71
2022/06/03 05:09:56;;;;;;;10.82;6.22;;;11.20;99.90;;;;;;5010534;28;20054;-72
2022/06/03 05:12:46;;;;;;;8.35;5.78;;;11.30;99.90;;;;;;5056124;28;20063;-71
2022/06/03 05:15:24;;;;;;;7.20;5.78;;;11.40;99.90;;;;;;5071270;28;20458;-72
2022/06/03 05:18:12;;;;;;;14.63;8.50;;;11.50;99.90;;;;;;5072139;28;20545;-74
2022/06/03 05:20:49;;;;;;;12.88;7.75;;;11.60;99.90;;;;;;5072072;28;20052;-70
2022/06/03 05:23:33;;;;;;;9.63;5.95;;;11.70;99.90;;;;;;5072651;28;20045;-70
2022/06/03 05:26:41;;;;;;;8.85;5.60;;;11.80;99.90;;;;;;5076422;28;20147;-70
2022/06/03 05:29:48;;;;;;;6.85;5.32;;;11.90;99.90;;;;;;5075649;28;20129;-70
2022/06/03 05:32:33;;;;;;;8.40;4.63;;;12.00;99.90;;;;;;5076582;28;20067;-71
2022/06/03 05:35:22;;;;;;;7.80;4.88;;;12.20;99.90;;;;;;5076007;28;20037;-72
2022/06/03 05:37:58;;;;;;;8.40;4.80;;;12.30;99.90;;;;;;5076378;28;20055;-70
2022/06/03 05:40:54;;;;;;;7.25;4.95;;;12.40;99.90;;;;;;5075662;28;20041;-70
2022/06/03 05:43:59;;;;;;;10.70;6.32;;;12.60;99.90;;;;;;5076368;28;20052;-71
2022/06/03 05:46:48;;;;;;;10.73;5.65;;;12.70;99.90;;;;;;5075937;28;20072;-71
2022/06/03 05:49:53;;;;;;;13.40;5.07;;;12.80;99.90;;;;;;5074645;28;20055;-70
2022/06/03 05:52:50;;;;;;;8.88;5.60;;;13.00;99.90;;;;;;5074593;28;20087;-71
2022/06/03 05:55:53;;;;;;;9.52;5.70;;;13.10;99.90;;;;;;5022676;28;20060;-70
2022/06/03 05:59:08;;;;;;;11.50;5.82;;;13.20;99.90;;;;;;5056118;28;20084;-70
2022/06/03 06:02:02;;;;;;;8.65;5.18;;;13.40;99.90;;;;;;5033232;28;20045;-70
2022/06/03 06:05:04;;;;;;;8.65;5.90;;;13.50;99.90;;;;;;5016744;28;20493;-70
2022/06/03 06:07:53;;;;;;;7.88;4.93;;;13.80;99.90;;;;;;5072316;28;20058;-71
2022/06/03 06:11:03;;;;;;;8.77;4.65;;;14.00;99.90;;;;;;5075332;28;20055;-70
2022/06/03 06:14:13;;;;;;;7.93;5.68;;;14.10;99.90;;;;;;5075459;28;20055;-71
2022/06/03 06:16:41;;;;;;;8.80;5.68;;;14.40;99.90;;;;;;5046142;28;20085;-74
2022/06/03 06:19:28;;;;;;;218.80;157.70;;;14.70;99.90;;;;;;5073617;28;20068;-75
2022/06/03 06:21:54;;;;;;;6.80;4.85;;;15.30;99.90;;;;;;5075627;28;20055;-75
2022/06/03 06:24:35;;;;;;;5.32;4.22;;;16.90;99.90;;;;;;5075403;28;20052;-75
2022/06/03 06:27:24;;;;;;;6.22;3.97;;;18.20;99.90;;;;;;5074956;28;20453;-75
2022/06/03 06:30:14;;;;;;;6.65;4.07;;;19.20;99.90;;;;;;5073674;28;20056;-74
2022/06/03 06:33:01;;;;;;;3.90;3.45;;;20.10;99.90;;;;;;5075129;28;20075;-74
2022/06/03 06:36:01;;;;;;;5.72;3.60;;;20.70;99.10;;;;;;5073109;28;20044;-74
2022/06/03 06:38:39;;;;;;;2.47;2.25;;;21.20;98.20;;;;;;5073620;28;20495;-74
2022/06/03 06:41:22;;;;;;;2.78;2.17;;;21.70;96.90;;;;;;5075035;28;20155;-75
2022/06/03 06:44:02;;;;;;;3.55;1.80;;;22.30;94.90;;;;;;5074595;28;20048;-75
2022/06/03 06:46:57;;;;;;;3.05;1.50;;;22.60;91.90;;;;;;5074822;28;20060;-75
2022/06/03 06:49:46;;;;;;;1.45;1.30;;;23.00;90.80;;;;;;5074234;28;20055;-75
2022/06/03 06:52:42;;;;;;;1.95;1.50;;;23.20;89.10;;;;;;5074394;28;20102;-76
2022/06/03 06:55:15;;;;;;;3.83;1.70;;;23.40;88.60;;;;;;5074335;28;20040;-74
2022/06/03 06:57:54;;;;;;;1.85;1.42;;;23.50;89.80;;;;;;5074512;28;20124;-74
2022/06/03 07:00:27;;;;;;;2.25;1.73;;;23.20;83.40;;;;;;5074161;28;20048;-74
2022/06/03 07:03:19;;;;;;;7.30;2.10;;;23.00;86.40;;;;;;5074731;28;20108;-74
2022/06/03 07:05:57;;;;;;;2.00;1.80;;;22.90;85.00;;;;;;5074025;28;20049;-74
2022/06/03 07:08:28;;;;;;;1.83;1.70;;;23.20;84.70;;;;;;5074311;28;20068;-74
2022/06/03 07:11:01;;;;;;;1.80;1.58;;;23.60;85.30;;;;;;5074168;28;20053;-74
2022/06/03 07:13:45;;;;;;;2.10;1.90;;;23.90;83.20;;;;;;5074348;28;20472;-75
2022/06/03 07:19:47;;;;;;;6.18;1.80;;;24.00;78.50;;;;;;5073567;28;20041;-75
2022/06/03 07:22:21;;;;;;;1.48;1.38;;;24.30;77.60;;;;;;5073569;28;20091;-74
2022/06/03 07:24:47;;;;;;;41.58;33.70;;;24.40;76.70;;;;;;5073357;28;20484;-78
2022/06/03 07:27:25;;;;;;;7.32;4.63;;;24.40;80.60;;;;;;5074135;28;20054;-77
2022/06/03 07:30:30;;;;;;;3.25;2.03;;;24.20;78.30;;;;;;5074148;28;20037;-72
2022/06/03 07:33:15;;;;;;;2.55;1.95;;;23.70;76.50;;;;;;5052350;28;20092;-72
2022/06/03 07:35:53;;;;;;;3.70;1.63;;;23.40;79.20;;;;;;5073761;28;20044;-76
2022/06/03 07:38:28;;;;;;;2.72;1.70;;;23.70;80.50;;;;;;5073907;28;20055;-75
2022/06/03 07:41:03;;;;;;;2.42;1.70;;;23.80;77.20;;;;;;5073497;28;20049;-76
2022/06/03 07:43:41;;;;;;;1.90;1.77;;;24.20;75.50;;;;;;5088750;28;20044;-72
2022/06/03 07:46:15;;;;;;;2.28;1.63;;;24.00;77.40;;;;;;5073580;28;20047;-73
2022/06/03 07:48:41;;;;;;;2.42;1.58;;;24.20;75.60;;;;;;5072317;28;20053;-73
2022/06/03 07:51:09;;;;;;;1.77;1.65;;;24.30;76.90;;;;;;5073093;28;20049;-71
2022/06/03 07:53:56;;;;;;;2.53;1.52;;;24.00;76.50;;;;;;5073535;28;20044;-71
2022/06/03 07:56:26;;;;;;;2.45;1.50;;;23.70;74.60;;;;;;5072910;28;20053;-72
2022/06/03 07:58:56;;;;;;;1.90;1.73;;;23.20;78.00;;;;;;5073245;28;20087;-72
2022/06/03 08:01:24;;;;;;;1.58;1.48;;;23.20;77.30;;;;;;5073277;28;20154;-71
2022/06/03 08:03:50;;;;;;;2.60;1.80;;;23.60;79.10;;;;;;5072828;28;20123;-74
2022/06/03 08:06:15;;;;;;;1.90;1.63;;;23.90;78.60;;;;;;5072469;28;20076;-73
2022/06/03 08:11:33;;;;;;;3.35;2.10;;;24.90;77.40;;;;;;5072683;28;20041;-73
2022/06/03 08:14:01;;;;;;;2.65;1.65;;;25.10;74.60;;;;;;5072609;28;20045;-74
2022/06/03 08:16:39;;;;;;;2.15;1.33;;;25.20;74.10;;;;;;5071648;28;20052;-73
2022/06/03 08:19:16;;;;;;;3.88;1.80;;;24.70;71.40;;;;;;5072912;28;20053;-73
2022/06/03 08:21:52;;;;;;;1.77;1.67;;;24.50;74.00;;;;;;5072817;28;20060;-72
2022/06/03 08:24:22;;;;;;;2.75;1.30;;;24.60;74.50;;;;;;5072761;28;20052;-71
2022/06/03 08:26:55;;;;;;;1.80;1.45;;;24.40;73.00;;;;;;5072661;28;20060;-72
2022/06/03 08:29:30;;;;;;;1.70;1.60;;;24.00;73.20;;;;;;5072603;28;20114;-72
2022/06/03 08:31:58;;;;;;;2.58;1.48;;;24.30;75.60;;;;;;5072679;28;20079;-72
2022/06/03 08:34:33;;;;;;;2.97;1.40;;;24.10;74.80;;;;;;5072520;28;20049;-72
2022/06/03 08:37:00;;;;;;;2.65;1.63;;;24.70;74.90;;;;;;5073217;28;20040;-72
2022/06/03 08:39:30;;;;;;;2.05;1.30;;;24.70;74.70;;;;;;5087931;28;20040;-72
2022/06/03 08:42:11;;;;;;;1.30;1.20;;;24.40;74.30;;;;;;5072545;28;20044;-71
2022/06/03 08:44:58;;;;;;;1.70;1.60;;;24.00;74.40;;;;;;5072178;28;20507;-72
2022/06/03 08:47:52;;;;;;;3.25;1.70;;;24.50;74.00;;;;;;5072775;28;20464;-72
2022/06/03 08:50:29;;;;;;;2.03;1.75;;;24.80;72.60;;;;;;5071554;28;20396;-72
2022/06/03 08:53:04;;;;;;;3.63;1.40;;;24.70;71.80;;;;;;5072554;28;20094;-71
2022/06/03 08:55:39;;;;;;;2.13;1.30;;;24.90;73.30;;;;;;5072906;28;20068;-72
2022/06/03 08:58:16;;;;;;;2.38;2.00;;;24.80;73.30;;;;;;5071613;28;20048;-72
2022/06/03 09:00:53;;;;;;;3.13;2.03;;;24.30;73.40;;;;;;5075282;28;20048;-72
2022/06/03 09:03:21;;;;;;;3.92;2.00;;;24.70;73.00;;;;;;5076325;28;20185;-72
2022/06/03 09:06:06;;;;;;;2.00;1.83;;;24.50;74.80;;;;;;5076210;28;20484;-72
2022/06/03 09:08:42;;;;;;;3.45;2.78;;;24.60;73.30;;;;;;5076379;28;20044;-74
2022/06/03 09:11:25;;;;;;;4.07;3.15;;;24.70;74.60;;;;;;5076799;28;20048;-74
2022/06/03 09:13:54;;;;;;;;;;;24.50;74.00;;;;;;5076380;28;20053;-72
2022/06/03 09:16:21;;;;;;;3.33;1.90;;;24.40;72.50;;;;;;5076614;28;20018;-72
2022/06/03 09:18:55;;;;;;;4.38;2.10;;;25.00;76.00;;;;;;5076729;28;20106;-71
2022/06/03 09:21:31;;;;;;;2.10;1.90;;;25.60;75.10;;;;;;5076298;28;20091;-71
2022/06/03 09:24:07;;;;;;;1.92;1.70;;;25.50;73.40;;;;;;5076407;28;20044;-71
2022/06/03 09:26:39;;;;;;;1.77;1.67;;;25.20;71.90;;;;;;5076052;28;20051;-72
2022/06/03 09:29:09;;;;;;;1.90;1.70;;;25.10;72.60;;;;;;5076254;28;20440;-73
2022/06/03 09:31:45;;;;;;;2.03;1.90;;;24.90;72.80;;;;;;5075980;28;20052;-74
2022/06/03 09:34:12;;;;;;;2.40;2.20;;;25.20;73.20;;;;;;5075950;28;20045;-72
2022/06/03 09:36:38;;;;;;;20.88;15.38;;;25.20;72.80;;;;;;5076156;28;20048;-74
2022/06/03 09:39:08;;;;;;;3.70;2.63;;;25.30;71.40;;;;;;5074599;28;20048;-73
2022/06/03 09:42:00;;;;;;;2.40;2.05;;;24.70;71.10;;;;;;5075884;28;20047;-72
2022/06/03 09:44:27;;;;;;;3.10;2.40;;;25.00;70.50;;;;;;5073893;28;20052;-74
2022/06/03 09:46:59;;;;;;;2.72;2.15;;;25.20;72.20;;;;;;5074794;28;20462;-73
2022/06/03 09:49:26;;;;;;;2.15;1.92;;;25.00;71.80;;;;;;5074770;28;20105;-72
2022/06/03 09:52:03;;;;;;;2.15;1.88;;;24.80;72.20;;;;;;5091514;28;20065;-73
2022/06/03 09:54:39;;;;;;;2.72;1.98;;;24.90;72.20;;;;;;5075416;28;20464;-74
2022/06/03 09:57:27;;;;;;;3.38;2.03;;;24.80;72.90;;;;;;5075356;28;20106;-74
2022/06/03 10:00:22;;;;;;;1.65;1.55;;;24.20;72.30;;;;;;5074713;28;20484;-74
2022/06/03 10:02:49;;;;;;;1.63;1.52;;;24.20;71.70;;;;;;5075106;28;20067;-73
2022/06/03 10:05:17;;;;;;;2.10;1.92;;;24.50;73.40;;;;;;5074016;28;20132;-72
2022/06/03 10:07:44;;;;;;;2.53;2.22;;;24.40;71.50;;;;;;5075527;28;20048;-73
2022/06/03 10:13:06;;;;;;;6.55;4.22;;;24.70;70.70;;;;;;5074625;28;20052;-74
2022/06/03 10:15:38;;;;;;;2.95;2.10;;;24.60;72.60;;;;;;5074158;28;20097;-73
2022/06/03 10:18:25;;;;;;;1.80;1.70;;;24.60;72.90;;;;;;5073561;28;20052;-73
2022/06/03 10:21:15;;;;;;;1.70;1.60;;;24.80;72.20;;;;;;5074996;28;20075;-73
2022/06/03 10:23:42;;;;;;;2.30;1.92;;;24.80;72.50;;;;;;5075268;28;20119;-75
2022/06/03 10:26:17;;;;;;;2.72;2.05;;;25.00;71.80;;;;;;5074329;28;20041;-74
2022/06/03 10:28:43;;;;;;;2.53;1.83;;;25.10;71.50;;;;;;5073804;28;20517;-74
2022/06/03 10:31:19;;;;;;;1.92;1.63;;;24.60;71.90;;;;;;5090235;28;20049;-73
2022/06/03 10:34:00;;;;;;;1.90;1.67;;;24.80;70.20;;;;;;5073233;28;20044;-74
2022/06/03 10:36:36;;;;;;;2.53;1.90;;;24.20;68.90;;;;;;5074738;28;20048;-74
2022/06/03 10:39:04;;;;;;;1.73;1.63;;;24.10;71.80;;;;;;5074730;28;20044;-74
2022/06/03 10:41:40;;;;;;;2.83;1.98;;;24.30;71.70;;;;;;5089968;28;20412;-73
2022/06/03 10:44:17;;;;;;;2.20;2.00;;;24.30;71.40;;;;;;5074018;28;20044;-75
2022/06/03 10:47:06;;;;;;;2.00;1.60;;;24.20;70.30;;;;;;5075328;28;20048;-74
2022/06/03 10:49:38;;;;;;;2.03;1.83;;;23.90;71.10;;;;;;5074139;28;20049;-77
2022/06/03 11:03:29;;;;;;;3.05;1.98;;;23.40;72.40;;;;;;5074252;28;20110;-75
2022/06/03 11:05:55;;;;;;;2.65;2.28;;;23.20;72.30;;;;;;5072958;28;20468;-75
2022/06/03 11:08:21;;;;;;;2.35;2.10;;;23.30;71.90;;;;;;5073339;28;20063;-76
2022/06/03 11:10:50;;;;;;;3.72;1.95;;;23.30;71.40;;;;;;5073709;28;20097;-75
2022/06/03 11:13:34;;;;;;;3.20;1.77;;;23.10;72.80;;;;;;5073796;28;20101;-74
2022/06/03 11:16:35;;;;;;;2.17;2.00;;;22.90;72.70;;;;;;5074139;28;20044;-74
2022/06/03 11:19:17;;;;;;;2.80;2.00;;;22.90;72.30;;;;;;5031379;28;20053;-74
2022/06/03 11:21:43;;;;;;;2.03;1.87;;;22.80;72.30;;;;;;5069447;28;20044;-74
2022/06/03 11:24:09;;;;;;;2.35;1.75;;;22.60;72.60;;;;;;5072229;28;20101;-73
2022/06/03 11:26:40;;;;;;;2.35;1.80;;;22.40;71.80;;;;;;5073501;28;20119;-73
2022/06/03 11:29:19;;;;;;;2.38;2.20;;;22.10;71.60;;;;;;5074106;28;20040;-74
2022/06/03 11:31:47;;;;;;;4.47;3.70;;;22.00;73.30;;;;;;5073921;28;20479;-72
2022/06/03 11:34:46;;;;;;;2.88;2.15;;;21.90;73.40;;;;;;5073814;28;20102;-71
2022/06/03 11:37:34;;;;;;;3.42;1.90;;;21.90;72.90;;;;;;5065155;28;20065;-69
2022/06/03 11:40:05;;;;;;;3.90;1.98;;;21.90;72.10;;;;;;5073966;28;20131;-70
2022/06/03 11:42:43;;;;;;;2.38;1.95;;;22.00;73.40;;;;;;5073359;28;20049;-71
2022/06/03 11:45:19;;;;;;;2.15;1.90;;;21.70;72.10;;;;;;5072263;28;20040;-70
2022/06/03 11:48:19;;;;;;;2.35;1.90;;;21.90;73.40;;;;;;5073216;28;20045;-70
2022/06/03 11:50:44;;;;;;;2.65;1.83;;;22.10;74.00;;;;;;5073164;28;20044;-69
2022/06/03 11:53:11;;;;;;;3.60;2.15;;;22.10;74.20;;;;;;5071898;28;20093;-70
2022/06/03 11:55:38;;;;;;;2.15;1.58;;;22.10;73.90;;;;;;5073139;28;20044;-71
2022/06/03 11:58:18;;;;;;;3.85;2.55;;;22.10;73.70;;;;;;5073240;28;20101;-70
2022/06/03 12:00:51;;;;;;;5.38;2.20;;;22.10;73.60;;;;;;5073595;28;20098;-70
2022/06/03 12:03:43;;;;;;;2.72;1.92;;;22.00;74.10;;;;;;5072788;28;20155;-73
2022/06/03 12:06:14;;;;;;;2.58;2.35;;;22.10;74.20;;;;;;5073435;28;20102;-72
2022/06/03 12:08:54;;;;;;;21.45;13.57;;;22.20;73.40;;;;;;5072610;28;20044;-74
2022/06/03 12:14:35;;;;;;;2.58;2.30;;;22.20;72.70;;;;;;5073275;28;20045;-73
2022/06/03 12:17:13;;;;;;;2.63;2.10;;;22.40;73.60;;;;;;5072831;28;20085;-74
2022/06/03 12:19:49;;;;;;;2.60;1.92;;;22.40;73.70;;;;;;5072740;28;20056;-73
2022/06/03 12:22:15;;;;;;;4.78;2.22;;;22.40;73.70;;;;;;5072351;28;20079;-73
2022/06/03 12:24:43;;;;;;;3.28;2.28;;;22.60;73.80;;;;;;5071805;28;20048;-74
2022/06/03 12:27:17;;;;;;;1.98;1.77;;;22.60;72.90;;;;;;5072629;28;20082;-73
2022/06/03 12:29:56;;;;;;;2.65;2.20;;;22.60;73.80;;;;;;5073049;28;20079;-73
2022/06/03 12:32:30;;;;;;;4.20;2.63;;;22.50;73.40;;;;;;5072661;28;20041;-73
2022/06/03 12:35:33;;;;;;;2.58;2.38;;;22.00;74.40;;;;;;5072725;28;20048;-72
2022/06/03 12:38:21;;;;;;;3.43;2.00;;;22.00;75.70;;;;;;5071616;28;20052;-73
2022/06/03 12:40:58;;;;;;;2.20;2.00;;;22.10;77.70;;;;;;5071732;28;20349;-72
2022/06/03 12:43:43;;;;;;;2.42;2.22;;;22.20;75.70;;;;;;5072687;28;20052;-73
2022/06/03 12:46:30;;;;;;;2.30;2.10;;;22.40;75.70;;;;;;5071523;28;20048;-72
2022/06/03 12:48:56;;;;;;;3.38;2.03;;;22.30;74.70;;;;;;5071824;28;20076;-73
2022/06/03 12:51:25;;;;;;;2.33;2.13;;;22.20;74.40;;;;;;5072291;28;20055;-73
2022/06/03 12:54:16;;;;;;;2.97;2.03;;;22.20;73.90;;;;;;5072169;28;20477;-73
2022/06/03 12:57:08;;;;;;;2.42;2.05;;;22.10;73.80;;;;;;5049042;28;20107;-73
2022/06/03 12:59:43;;;;;;;3.42;2.13;;;22.10;74.60;;;;;;5072572;28;20122;-74
2022/06/03 13:02:14;;;;;;;3.30;2.47;;;22.10;74.40;;;;;;5072141;28;20049;-73
2022/06/03 13:04:53;;;;;;;2.30;2.10;;;21.90;73.90;;;;;;5071726;28;20045;-72
2022/06/03 13:07:25;;;;;;;9.75;6.03;;;21.90;74.60;;;;;;5072475;28;20048;-74
2022/06/03 13:09:55;;;;;;;3.17;1.80;;;22.00;75.40;;;;;;5072449;28;20056;-73
2022/06/03 13:12:31;;;;;;;2.83;1.83;;;22.20;74.60;;;;;;5071771;28;20072;-73
2022/06/03 13:15:17;;;;;;;3.22;1.73;;;22.10;76.00;;;;;;5072479;28;20076;-72
2022/06/03 13:18:18;;;;;;;3.28;2.10;;;22.40;75.30;;;;;;5071265;28;20045;-73
2022/06/03 13:20:45;;;;;;;2.28;1.88;;;22.00;72.80;;;;;;5072782;28;20064;-73
2022/06/03 13:23:20;;;;;;;3.97;1.80;;;22.20;74.90;;;;;;5071993;28;20056;-74
2022/06/03 13:25:51;;;;;;;2.13;1.92;;;22.20;74.10;;;;;;5072448;28;20040;-76
2022/06/03 13:28:37;;;;;;;14.13;9.23;;;22.30;75.60;;;;;;5072294;28;20079;-74
2022/06/03 13:31:16;;;;;;;6.00;2.35;;;22.10;73.50;;;;;;5071577;28;20388;-73
2022/06/03 13:34:09;;;;;;;3.00;1.92;;;22.00;73.90;;;;;;5072562;28;20145;-73
2022/06/03 13:36:39;;;;;;;;;;;22.10;74.10;;;;;;5072827;28;20051;-73
2022/06/03 13:39:38;;;;;;;1.67;1.50;;;22.10;71.40;;;;;;5071387;28;20006;-75
2022/06/03 13:45:01;;;;;;;2.05;1.95;;;22.00;74.70;;;;;;5071233;28;20048;-74
2022/06/03 13:47:48;;;;;;;2.42;1.80;;;22.10;73.80;;;;;;5075862;28;20186;-74
2022/06/03 13:50:13;;;;;;;2.55;1.67;;;22.00;71.70;;;;;;5075539;28;20055;-74
2022/06/03 13:52:47;;;;;;;2.00;1.88;;;21.90;72.70;;;;;;5075653;28;20044;-74
2022/06/03 13:55:26;;;;;;;2.33;1.85;;;21.90;72.80;;;;;;5074272;28;20437;-74
2022/06/03 13:57:58;;;;;;;4.97;1.60;;;22.20;73.50;;;;;;5075245;28;20041;-74
2022/06/03 14:00:49;;;;;;;3.45;1.85;;;22.10;72.10;;;;;;5075432;28;20048;-75
2022/06/03 14:03:20;;;;;;;3.00;1.77;;;22.20;72.50;;;;;;5075739;28;20185;-72
2022/06/03 14:05:51;;;;;;;1.83;1.63;;;22.10;71.70;;;;;;5075614;28;20064;-73
2022/06/03 14:08:31;;;;;;;2.47;1.60;;;22.10;71.70;;;;;;5075583;28;20068;-73
2022/06/03 14:11:06;;;;;;;2.13;1.40;;;22.00;72.50;;;;;;5075756;28;20125;-72
2022/06/03 14:13:59;;;;;;;2.35;2.15;;;22.20;72.90;;;;;;5075254;28;20131;-73
2022/06/03 14:16:46;;;;;;;2.25;1.45;;;22.20;72.20;;;;;;5075180;28;20071;-73
2022/06/03 14:19:11;;;;;;;2.70;1.73;;;22.40;72.00;;;;;;5063199;28;20400;-72
2022/06/03 14:21:37;;;;;;;3.88;1.30;;;22.30;71.40;;;;;;5073677;28;20044;-72
2022/06/03 14:24:11;;;;;;;1.63;1.52;;;22.30;71.50;;;;;;5075306;28;20049;-73
2022/06/03 14:26:51;;;;;;;1.48;1.20;;;22.40;72.10;;;;;;5074855;28;20126;-73
2022/06/03 14:29:36;;;;;;;1.58;1.38;;;22.30;73.90;;;;;;5074966;28;20084;-73
2022/06/03 14:32:08;;;;;;;6.43;1.52;;;22.00;76.60;;;;;;5062590;28;20063;-72